Inicio METAR Ruta Wind Satelite

Informe Meteorológico

Fecha: 2021/09/21 16:03:59 Local
2021.09.21 21:03 UTC


Operación:
SKUI 212100Z VRB04KT 9999 VCSH SCT025TCU SCT200 32/24 Q1007 RMK TCUVCSH/N/NE A2976 =